sensor_id;sensor_type;location;lat;lon;timestamp;P1;durP1;ratioP1;P2;durP2;ratioP2
22713;SDS011;11524;50.846;4.326;2023-01-15T00:00:03;5.78;;;1.10;;
22713;SDS011;11524;50.846;4.326;2023-01-15T00:02:30;1.80;;;0.90;;
22713;SDS011;11524;50.846;4.326;2023-01-15T00:04:56;4.32;;;1.17;;
22713;SDS011;11524;50.846;4.326;2023-01-15T00:07:21;4.22;;;0.93;;
22713;SDS011;11524;50.846;4.326;2023-01-15T00:09:50;3.05;;;0.90;;
22713;SDS011;11524;50.846;4.326;2023-01-15T00:12:16;3.25;;;1.55;;
22713;SDS011;11524;50.846;4.326;2023-01-15T00:14:41;5.28;;;1.02;;
22713;SDS011;11524;50.846;4.326;2023-01-15T00:17:07;2.08;;;0.90;;
22713;SDS011;11524;50.846;4.326;2023-01-15T00:19:35;2.95;;;1.23;;
22713;SDS011;11524;50.846;4.326;2023-01-15T00:22:01;3.33;;;1.00;;
22713;SDS011;11524;50.846;4.326;2023-01-15T00:24:27;2.65;;;1.02;;
22713;SDS011;11524;50.846;4.326;2023-01-15T00:27:11;2.92;;;1.30;;
22713;SDS011;11524;50.846;4.326;2023-01-15T00:29:55;2.70;;;1.00;;
22713;SDS011;11524;50.846;4.326;2023-01-15T00:32:20;3.47;;;1.10;;
22713;SDS011;11524;50.846;4.326;2023-01-15T00:34:46;3.17;;;1.30;;
22713;SDS011;11524;50.846;4.326;2023-01-15T00:37:11;1.73;;;0.90;;
22713;SDS011;11524;50.846;4.326;2023-01-15T00:39:37;2.92;;;0.88;;
22713;SDS011;11524;50.846;4.326;2023-01-15T00:42:03;3.00;;;1.02;;
22713;SDS011;11524;50.846;4.326;2023-01-15T00:44:28;2.10;;;1.00;;
22713;SDS011;11524;50.846;4.326;2023-01-15T00:47:12;2.15;;;0.98;;
22713;SDS011;11524;50.846;4.326;2023-01-15T00:49:40;1.83;;;1.00;;
22713;SDS011;11524;50.846;4.326;2023-01-15T00:52:07;2.75;;;1.30;;
22713;SDS011;11524;50.846;4.326;2023-01-15T00:54:33;2.72;;;1.20;;
22713;SDS011;11524;50.846;4.326;2023-01-15T00:57:01;3.65;;;1.33;;
22713;SDS011;11524;50.846;4.326;2023-01-15T00:59:30;2.15;;;0.82;;
22713;SDS011;11524;50.846;4.326;2023-01-15T01:01:56;4.03;;;1.27;;
22713;SDS011;11524;50.846;4.326;2023-01-15T01:04:24;1.70;;;0.80;;
22713;SDS011;11524;50.846;4.326;2023-01-15T01:06:52;1.80;;;1.02;;
22713;SDS011;11524;50.846;4.326;2023-01-15T01:09:18;2.05;;;0.80;;
22713;SDS011;11524;50.846;4.326;2023-01-15T01:11:44;1.83;;;1.00;;
22713;SDS011;11524;50.846;4.326;2023-01-15T01:14:09;2.38;;;0.90;;
22713;SDS011;11524;50.846;4.326;2023-01-15T01:16:43;3.17;;;1.05;;
22713;SDS011;11524;50.846;4.326;2023-01-15T01:19:17;2.53;;;0.90;;
22713;SDS011;11524;50.846;4.326;2023-01-15T01:21:47;2.38;;;0.80;;
22713;SDS011;11524;50.846;4.326;2023-01-15T01:24:17;2.55;;;1.10;;
22713;SDS011;11524;50.846;4.326;2023-01-15T01:26:45;3.20;;;0.90;;
22713;SDS011;11524;50.846;4.326;2023-01-15T01:29:11;3.17;;;1.20;;
22713;SDS011;11524;50.846;4.326;2023-01-15T01:31:38;2.08;;;0.90;;
22713;SDS011;11524;50.846;4.326;2023-01-15T01:34:04;3.17;;;1.02;;
22713;SDS011;11524;50.846;4.326;2023-01-15T01:36:30;2.55;;;1.02;;
22713;SDS011;11524;50.846;4.326;2023-01-15T01:39:00;2.47;;;1.00;;
22713;SDS011;11524;50.846;4.326;2023-01-15T01:41:30;3.53;;;1.05;;
22713;SDS011;11524;50.846;4.326;2023-01-15T01:44:03;3.88;;;1.20;;
22713;SDS011;11524;50.846;4.326;2023-01-15T01:46:32;2.53;;;1.00;;
22713;SDS011;11524;50.846;4.326;2023-01-15T01:48:59;2.80;;;1.33;;
22713;SDS011;11524;50.846;4.326;2023-01-15T01:54:39;3.15;;;0.90;;
22713;SDS011;11524;50.846;4.326;2023-01-15T01:57:06;3.67;;;1.02;;
22713;SDS011;11524;50.846;4.326;2023-01-15T01:59:33;2.95;;;1.05;;
22713;SDS011;11524;50.846;4.326;2023-01-15T02:02:00;2.47;;;0.93;;
22713;SDS011;11524;50.846;4.326;2023-01-15T02:04:26;5.22;;;1.23;;
22713;SDS011;11524;50.846;4.326;2023-01-15T02:06:53;2.97;;;1.02;;
22713;SDS011;11524;50.846;4.326;2023-01-15T02:09:19;3.55;;;1.10;;
22713;SDS011;11524;50.846;4.326;2023-01-15T02:11:45;3.45;;;1.10;;
22713;SDS011;11524;50.846;4.326;2023-01-15T02:14:24;3.67;;;1.17;;
22713;SDS011;11524;50.846;4.326;2023-01-15T02:17:13;4.75;;;1.23;;
22713;SDS011;11524;50.846;4.326;2023-01-15T02:19:47;3.35;;;0.85;;
22713;SDS011;11524;50.846;4.326;2023-01-15T02:28:00;3.10;;;0.80;;
22713;SDS011;11524;50.846;4.326;2023-01-15T02:30:39;2.20;;;0.80;;
22713;SDS011;11524;50.846;4.326;2023-01-15T02:33:18;4.15;;;0.90;;
22713;SDS011;11524;50.846;4.326;2023-01-15T02:35:49;3.13;;;1.08;;
22713;SDS011;11524;50.846;4.326;2023-01-15T02:38:32;1.10;;;0.80;;
22713;SDS011;11524;50.846;4.326;2023-01-15T02:41:03;3.90;;;1.00;;
22713;SDS011;11524;50.846;4.326;2023-01-15T02:43:33;2.83;;;0.90;;
22713;SDS011;11524;50.846;4.326;2023-01-15T02:46:02;2.35;;;0.90;;
22713;SDS011;11524;50.846;4.326;2023-01-15T02:48:29;3.28;;;0.93;;
22713;SDS011;11524;50.846;4.326;2023-01-15T02:51:00;2.88;;;1.10;;
22713;SDS011;11524;50.846;4.326;2023-01-15T02:53:31;2.70;;;1.00;;
22713;SDS011;11524;50.846;4.326;2023-01-15T02:56:00;3.33;;;1.00;;
22713;SDS011;11524;50.846;4.326;2023-01-15T02:58:29;4.25;;;1.02;;
22713;SDS011;11524;50.846;4.326;2023-01-15T03:00:57;3.05;;;0.90;;
22713;SDS011;11524;50.846;4.326;2023-01-15T03:03:37;2.75;;;0.88;;
22713;SDS011;11524;50.846;4.326;2023-01-15T03:06:07;2.72;;;1.17;;
22713;SDS011;11524;50.846;4.326;2023-01-15T03:08:36;5.05;;;1.30;;
22713;SDS011;11524;50.846;4.326;2023-01-15T03:19:13;4.18;;;1.20;;
22713;SDS011;11524;50.846;4.326;2023-01-15T03:21:55;4.03;;;1.00;;
22713;SDS011;11524;50.846;4.326;2023-01-15T03:27:00;2.80;;;0.85;;
22713;SDS011;11524;50.846;4.326;2023-01-15T03:29:27;3.38;;;1.00;;
22713;SDS011;11524;50.846;4.326;2023-01-15T03:31:59;2.72;;;0.88;;
22713;SDS011;11524;50.846;4.326;2023-01-15T03:34:25;3.28;;;0.88;;
22713;SDS011;11524;50.846;4.326;2023-01-15T03:36:57;3.55;;;1.05;;
22713;SDS011;11524;50.846;4.326;2023-01-15T03:39:23;3.17;;;0.88;;
22713;SDS011;11524;50.846;4.326;2023-01-15T03:41:52;3.13;;;1.02;;
22713;SDS011;11524;50.846;4.326;2023-01-15T03:44:25;3.13;;;1.00;;
22713;SDS011;11524;50.846;4.326;2023-01-15T03:47:03;2.33;;;1.05;;
22713;SDS011;11524;50.846;4.326;2023-01-15T03:50:03;3.10;;;1.10;;
22713;SDS011;11524;50.846;4.326;2023-01-15T03:52:45;2.72;;;0.90;;
22713;SDS011;11524;50.846;4.326;2023-01-15T03:55:15;4.25;;;0.98;;
22713;SDS011;11524;50.846;4.326;2023-01-15T03:58:08;3.70;;;0.80;;
22713;SDS011;11524;50.846;4.326;2023-01-15T04:00:40;2.47;;;0.75;;
22713;SDS011;11524;50.846;4.326;2023-01-15T04:03:08;3.22;;;0.95;;
22713;SDS011;11524;50.846;4.326;2023-01-15T04:05:36;4.22;;;0.80;;
22713;SDS011;11524;50.846;4.326;2023-01-15T04:08:04;4.13;;;1.02;;
22713;SDS011;11524;50.846;4.326;2023-01-15T04:10:31;3.63;;;0.95;;
22713;SDS011;11524;50.846;4.326;2023-01-15T04:12:56;3.72;;;0.80;;
22713;SDS011;11524;50.846;4.326;2023-01-15T04:15:22;2.97;;;0.85;;
22713;SDS011;11524;50.846;4.326;2023-01-15T04:17:47;1.27;;;0.65;;
22713;SDS011;11524;50.846;4.326;2023-01-15T04:20:13;3.33;;;0.93;;
22713;SDS011;11524;50.846;4.326;2023-01-15T04:22:39;2.13;;;0.80;;
22713;SDS011;11524;50.846;4.326;2023-01-15T04:25:05;3.08;;;0.85;;
22713;SDS011;11524;50.846;4.326;2023-01-15T04:27:31;2.50;;;1.00;;
22713;SDS011;11524;50.846;4.326;2023-01-15T04:29:57;2.75;;;1.05;;
22713;SDS011;11524;50.846;4.326;2023-01-15T04:32:23;3.70;;;0.90;;
22713;SDS011;11524;50.846;4.326;2023-01-15T04:34:48;2.30;;;0.90;;
22713;SDS011;11524;50.846;4.326;2023-01-15T04:37:15;2.53;;;0.75;;
22713;SDS011;11524;50.846;4.326;2023-01-15T04:39:41;5.22;;;1.10;;
22713;SDS011;11524;50.846;4.326;2023-01-15T04:42:10;2.55;;;0.75;;
22713;SDS011;11524;50.846;4.326;2023-01-15T04:44:55;5.28;;;0.88;;
22713;SDS011;11524;50.846;4.326;2023-01-15T04:47:21;3.40;;;1.10;;
22713;SDS011;11524;50.846;4.326;2023-01-15T04:49:47;4.45;;;0.77;;
22713;SDS011;11524;50.846;4.326;2023-01-15T04:52:13;2.72;;;0.80;;
22713;SDS011;11524;50.846;4.326;2023-01-15T04:54:39;4.60;;;1.10;;
22713;SDS011;11524;50.846;4.326;2023-01-15T04:57:04;3.58;;;1.10;;
22713;SDS011;11524;50.846;4.326;2023-01-15T04:59:30;3.45;;;1.00;;
22713;SDS011;11524;50.846;4.326;2023-01-15T05:01:56;5.40;;;0.90;;
22713;SDS011;11524;50.846;4.326;2023-01-15T05:04:22;2.20;;;0.70;;
22713;SDS011;11524;50.846;4.326;2023-01-15T05:06:48;1.90;;;0.77;;
22713;SDS011;11524;50.846;4.326;2023-01-15T05:09:13;2.97;;;0.77;;
22713;SDS011;11524;50.846;4.326;2023-01-15T05:11:39;2.22;;;0.80;;
22713;SDS011;11524;50.846;4.326;2023-01-15T05:14:05;5.10;;;1.10;;
22713;SDS011;11524;50.846;4.326;2023-01-15T05:16:31;3.05;;;1.05;;
22713;SDS011;11524;50.846;4.326;2023-01-15T05:19:01;4.10;;;0.80;;
22713;SDS011;11524;50.846;4.326;2023-01-15T05:21:29;4.28;;;1.08;;
22713;SDS011;11524;50.846;4.326;2023-01-15T05:23:56;2.10;;;0.73;;
22713;SDS011;11524;50.846;4.326;2023-01-15T05:26:24;4.03;;;0.68;;
22713;SDS011;11524;50.846;4.326;2023-01-15T05:28:55;3.50;;;0.80;;
22713;SDS011;11524;50.846;4.326;2023-01-15T05:31:22;3.35;;;0.85;;
22713;SDS011;11524;50.846;4.326;2023-01-15T05:33:49;3.70;;;1.27;;
22713;SDS011;11524;50.846;4.326;2023-01-15T05:36:16;2.95;;;0.80;;
22713;SDS011;11524;50.846;4.326;2023-01-15T05:38:46;2.97;;;0.98;;
22713;SDS011;11524;50.846;4.326;2023-01-15T05:41:14;2.95;;;0.60;;
22713;SDS011;11524;50.846;4.326;2023-01-15T05:44:02;1.90;;;0.88;;
22713;SDS011;11524;50.846;4.326;2023-01-15T05:46:32;2.95;;;0.68;;
22713;SDS011;11524;50.846;4.326;2023-01-15T05:49:00;2.90;;;0.80;;
22713;SDS011;11524;50.846;4.326;2023-01-15T05:51:27;2.78;;;0.85;;
22713;SDS011;11524;50.846;4.326;2023-01-15T05:53:53;2.25;;;0.70;;
22713;SDS011;11524;50.846;4.326;2023-01-15T05:56:19;2.05;;;0.90;;
22713;SDS011;11524;50.846;4.326;2023-01-15T05:58:44;2.33;;;0.90;;
22713;SDS011;11524;50.846;4.326;2023-01-15T06:01:11;2.13;;;0.95;;
22713;SDS011;11524;50.846;4.326;2023-01-15T06:03:36;4.78;;;0.93;;
22713;SDS011;11524;50.846;4.326;2023-01-15T06:06:02;3.47;;;0.90;;
22713;SDS011;11524;50.846;4.326;2023-01-15T06:08:28;2.33;;;0.65;;
22713;SDS011;11524;50.846;4.326;2023-01-15T06:10:54;2.40;;;0.80;;
22713;SDS011;11524;50.846;4.326;2023-01-15T06:13:19;2.20;;;0.70;;
22713;SDS011;11524;50.846;4.326;2023-01-15T06:15:45;2.78;;;0.70;;
22713;SDS011;11524;50.846;4.326;2023-01-15T06:18:11;4.18;;;0.80;;
22713;SDS011;11524;50.846;4.326;2023-01-15T06:20:40;1.70;;;0.52;;
22713;SDS011;11524;50.846;4.326;2023-01-15T06:23:06;2.30;;;0.47;;
22713;SDS011;11524;50.846;4.326;2023-01-15T06:25:33;2.22;;;0.63;;
22713;SDS011;11524;50.846;4.326;2023-01-15T06:28:01;1.23;;;0.40;;
22713;SDS011;11524;50.846;4.326;2023-01-15T06:30:27;1.92;;;0.80;;
22713;SDS011;11524;50.846;4.326;2023-01-15T06:32:53;1.88;;;0.80;;
22713;SDS011;11524;50.846;4.326;2023-01-15T06:35:18;2.25;;;0.70;;
22713;SDS011;11524;50.846;4.326;2023-01-15T06:37:47;2.33;;;0.65;;
22713;SDS011;11524;50.846;4.326;2023-01-15T06:40:14;1.58;;;0.60;;
22713;SDS011;11524;50.846;4.326;2023-01-15T06:42:40;2.10;;;0.75;;
22713;SDS011;11524;50.846;4.326;2023-01-15T06:48:08;1.73;;;0.77;;
22713;SDS011;11524;50.846;4.326;2023-01-15T06:50:33;1.77;;;0.57;;
22713;SDS011;11524;50.846;4.326;2023-01-15T06:52:59;2.33;;;0.60;;
22713;SDS011;11524;50.846;4.326;2023-01-15T06:55:25;1.63;;;0.68;;
22713;SDS011;11524;50.846;4.326;2023-01-15T06:57:50;2.05;;;0.50;;
22713;SDS011;11524;50.846;4.326;2023-01-15T07:00:16;2.15;;;0.70;;
22713;SDS011;11524;50.846;4.326;2023-01-15T07:02:42;2.03;;;0.60;;
22713;SDS011;11524;50.846;4.326;2023-01-15T07:05:08;3.00;;;0.70;;
22713;SDS011;11524;50.846;4.326;2023-01-15T07:07:33;3.50;;;0.75;;
22713;SDS011;11524;50.846;4.326;2023-01-15T07:09:59;2.75;;;0.60;;
22713;SDS011;11524;50.846;4.326;2023-01-15T07:12:25;1.83;;;0.65;;
22713;SDS011;11524;50.846;4.326;2023-01-15T07:14:51;4.97;;;0.95;;
22713;SDS011;11524;50.846;4.326;2023-01-15T07:17:17;3.33;;;1.02;;
22713;SDS011;11524;50.846;4.326;2023-01-15T07:19:45;3.40;;;1.00;;
22713;SDS011;11524;50.846;4.326;2023-01-15T07:22:11;3.75;;;0.80;;
22713;SDS011;11524;50.846;4.326;2023-01-15T07:24:37;2.55;;;0.70;;
22713;SDS011;11524;50.846;4.326;2023-01-15T07:27:02;2.13;;;0.73;;
22713;SDS011;11524;50.846;4.326;2023-01-15T07:29:31;2.15;;;0.65;;
22713;SDS011;11524;50.846;4.326;2023-01-15T07:31:56;2.80;;;0.70;;
22713;SDS011;11524;50.846;4.326;2023-01-15T07:34:22;3.88;;;0.85;;
22713;SDS011;11524;50.846;4.326;2023-01-15T07:36:48;2.05;;;0.82;;
22713;SDS011;11524;50.846;4.326;2023-01-15T07:39:13;2.17;;;0.75;;
22713;SDS011;11524;50.846;4.326;2023-01-15T07:41:39;2.20;;;0.70;;
22713;SDS011;11524;50.846;4.326;2023-01-15T07:44:23;2.47;;;0.90;;
22713;SDS011;11524;50.846;4.326;2023-01-15T07:47:16;3.05;;;0.77;;
22713;SDS011;11524;50.846;4.326;2023-01-15T07:50:06;1.80;;;0.82;;
22713;SDS011;11524;50.846;4.326;2023-01-15T07:52:37;2.85;;;0.60;;
22713;SDS011;11524;50.846;4.326;2023-01-15T07:55:03;3.28;;;0.90;;
22713;SDS011;11524;50.846;4.326;2023-01-15T07:57:29;1.95;;;0.70;;
22713;SDS011;11524;50.846;4.326;2023-01-15T07:59:54;2.15;;;0.68;;
22713;SDS011;11524;50.846;4.326;2023-01-15T08:02:21;3.85;;;0.60;;
22713;SDS011;11524;50.846;4.326;2023-01-15T08:04:49;4.53;;;0.88;;
22713;SDS011;11524;50.846;4.326;2023-01-15T08:07:15;4.00;;;0.77;;
22713;SDS011;11524;50.846;4.326;2023-01-15T08:09:46;2.88;;;0.80;;
22713;SDS011;11524;50.846;4.326;2023-01-15T08:12:11;2.10;;;1.00;;
22713;SDS011;11524;50.846;4.326;2023-01-15T08:14:56;3.42;;;0.98;;
22713;SDS011;11524;50.846;4.326;2023-01-15T08:17:48;2.85;;;0.65;;
22713;SDS011;11524;50.846;4.326;2023-01-15T08:20:17;2.78;;;0.77;;
22713;SDS011;11524;50.846;4.326;2023-01-15T08:22:44;4.40;;;0.90;;
22713;SDS011;11524;50.846;4.326;2023-01-15T08:25:11;3.17;;;0.60;;
22713;SDS011;11524;50.846;4.326;2023-01-15T08:27:39;3.85;;;1.10;;
22713;SDS011;11524;50.846;4.326;2023-01-15T08:30:06;4.18;;;0.90;;
22713;SDS011;11524;50.846;4.326;2023-01-15T08:32:36;2.47;;;0.60;;
22713;SDS011;11524;50.846;4.326;2023-01-15T08:35:02;2.47;;;0.88;;
22713;SDS011;11524;50.846;4.326;2023-01-15T08:37:28;3.55;;;0.75;;
22713;SDS011;11524;50.846;4.326;2023-01-15T08:39:54;3.55;;;0.80;;
22713;SDS011;11524;50.846;4.326;2023-01-15T08:42:22;3.70;;;1.17;;
22713;SDS011;11524;50.846;4.326;2023-01-15T08:44:48;3.22;;;1.05;;
22713;SDS011;11524;50.846;4.326;2023-01-15T08:47:14;2.97;;;0.90;;
22713;SDS011;11524;50.846;4.326;2023-01-15T08:49:42;4.15;;;1.20;;
22713;SDS011;11524;50.846;4.326;2023-01-15T08:52:08;4.22;;;1.00;;
22713;SDS011;11524;50.846;4.326;2023-01-15T08:54:34;4.00;;;1.25;;
22713;SDS011;11524;50.846;4.326;2023-01-15T08:56:59;4.10;;;0.88;;
22713;SDS011;11524;50.846;4.326;2023-01-15T08:59:25;3.28;;;0.70;;
22713;SDS011;11524;50.846;4.326;2023-01-15T09:01:51;2.78;;;0.93;;
22713;SDS011;11524;50.846;4.326;2023-01-15T09:04:18;4.35;;;1.10;;
22713;SDS011;11524;50.846;4.326;2023-01-15T09:06:45;3.47;;;0.82;;
22713;SDS011;11524;50.846;4.326;2023-01-15T09:09:11;1.95;;;0.63;;
22713;SDS011;11524;50.846;4.326;2023-01-15T09:11:48;2.42;;;0.70;;
22713;SDS011;11524;50.846;4.326;2023-01-15T09:14:14;4.68;;;0.80;;
22713;SDS011;11524;50.846;4.326;2023-01-15T09:16:40;3.70;;;0.82;;
22713;SDS011;11524;50.846;4.326;2023-01-15T09:19:06;1.70;;;0.80;;
22713;SDS011;11524;50.846;4.326;2023-01-15T09:21:32;1.35;;;0.60;;
22713;SDS011;11524;50.846;4.326;2023-01-15T09:23:58;3.85;;;1.05;;
22713;SDS011;11524;50.846;4.326;2023-01-15T09:26:25;3.65;;;0.75;;
22713;SDS011;11524;50.846;4.326;2023-01-15T09:28:51;4.00;;;0.98;;
22713;SDS011;11524;50.846;4.326;2023-01-15T09:31:17;5.60;;;0.77;;
22713;SDS011;11524;50.846;4.326;2023-01-15T09:33:43;4.20;;;0.73;;
22713;SDS011;11524;50.846;4.326;2023-01-15T09:36:14;2.00;;;0.63;;
22713;SDS011;11524;50.846;4.326;2023-01-15T09:38:41;3.40;;;0.70;;
22713;SDS011;11524;50.846;4.326;2023-01-15T09:41:08;4.70;;;1.20;;
22713;SDS011;11524;50.846;4.326;2023-01-15T09:46:52;5.32;;;0.95;;
22713;SDS011;11524;50.846;4.326;2023-01-15T09:49:36;4.57;;;1.00;;
22713;SDS011;11524;50.846;4.326;2023-01-15T09:52:31;3.03;;;1.08;;
22713;SDS011;11524;50.846;4.326;2023-01-15T09:57:55;3.55;;;1.02;;
22713;SDS011;11524;50.846;4.326;2023-01-15T10:00:24;4.80;;;1.02;;
22713;SDS011;11524;50.846;4.326;2023-01-15T10:02:52;2.50;;;0.82;;
22713;SDS011;11524;50.846;4.326;2023-01-15T10:08:43;3.20;;;0.88;;
22713;SDS011;11524;50.846;4.326;2023-01-15T10:11:19;5.45;;;1.10;;
22713;SDS011;11524;50.846;4.326;2023-01-15T10:14:14;7.32;;;1.13;;
22713;SDS011;11524;50.846;4.326;2023-01-15T10:16:56;6.35;;;1.10;;
22713;SDS011;11524;50.846;4.326;2023-01-15T10:19:22;7.65;;;1.27;;
22713;SDS011;11524;50.846;4.326;2023-01-15T10:27:14;4.63;;;1.38;;
22713;SDS011;11524;50.846;4.326;2023-01-15T10:29:49;7.57;;;1.42;;
22713;SDS011;11524;50.846;4.326;2023-01-15T10:35:19;3.30;;;1.00;;
22713;SDS011;11524;50.846;4.326;2023-01-15T10:46:00;4.40;;;1.50;;
22713;SDS011;11524;50.846;4.326;2023-01-15T10:48:53;2.88;;;0.95;;
22713;SDS011;11524;50.846;4.326;2023-01-15T10:51:26;6.78;;;1.20;;
22713;SDS011;11524;50.846;4.326;2023-01-15T10:54:06;4.30;;;1.23;;
22713;SDS011;11524;50.846;4.326;2023-01-15T10:57:01;5.95;;;1.05;;
22713;SDS011;11524;50.846;4.326;2023-01-15T10:59:40;4.85;;;1.30;;
22713;SDS011;11524;50.846;4.326;2023-01-15T11:02:20;6.32;;;1.10;;
22713;SDS011;11524;50.846;4.326;2023-01-15T11:04:47;6.03;;;1.08;;
22713;SDS011;11524;50.846;4.326;2023-01-15T11:07:13;3.95;;;0.90;;
22713;SDS011;11524;50.846;4.326;2023-01-15T11:09:40;3.22;;;0.98;;
22713;SDS011;11524;50.846;4.326;2023-01-15T11:14:52;3.95;;;1.00;;
22713;SDS011;11524;50.846;4.326;2023-01-15T11:17:37;5.15;;;1.30;;
22713;SDS011;11524;50.846;4.326;2023-01-15T11:20:27;5.88;;;1.25;;
22713;SDS011;11524;50.846;4.326;2023-01-15T11:22:56;3.60;;;1.10;;
22713;SDS011;11524;50.846;4.326;2023-01-15T11:25:30;3.38;;;1.10;;
22713;SDS011;11524;50.846;4.326;2023-01-15T11:27:57;5.47;;;1.25;;
22713;SDS011;11524;50.846;4.326;2023-01-15T11:30:28;5.82;;;1.38;;
22713;SDS011;11524;50.846;4.326;2023-01-15T11:33:04;8.95;;;1.25;;
22713;SDS011;11524;50.846;4.326;2023-01-15T11:35:51;6.28;;;0.90;;
22713;SDS011;11524;50.846;4.326;2023-01-15T11:38:26;6.32;;;1.00;;
22713;SDS011;11524;50.846;4.326;2023-01-15T11:40:57;6.47;;;1.10;;
22713;SDS011;11524;50.846;4.326;2023-01-15T11:43:26;7.32;;;1.50;;
22713;SDS011;11524;50.846;4.326;2023-01-15T11:46:22;4.15;;;1.02;;
22713;SDS011;11524;50.846;4.326;2023-01-15T11:49:18;8.38;;;1.27;;
22713;SDS011;11524;50.846;4.326;2023-01-15T11:52:05;3.30;;;1.00;;
22713;SDS011;11524;50.846;4.326;2023-01-15T11:54:52;7.75;;;1.17;;
22713;SDS011;11524;50.846;4.326;2023-01-15T11:57:30;5.15;;;0.98;;
22713;SDS011;11524;50.846;4.326;2023-01-15T11:59:58;5.10;;;1.08;;
22713;SDS011;11524;50.846;4.326;2023-01-15T12:02:28;2.83;;;1.00;;
22713;SDS011;11524;50.846;4.326;2023-01-15T12:05:12;4.13;;;1.00;;
22713;SDS011;11524;50.846;4.326;2023-01-15T12:07:41;2.65;;;0.90;;
22713;SDS011;11524;50.846;4.326;2023-01-15T12:13:17;4.50;;;1.15;;
22713;SDS011;11524;50.846;4.326;2023-01-15T12:18:49;4.75;;;1.30;;
22713;SDS011;11524;50.846;4.326;2023-01-15T12:26:51;3.17;;;1.20;;
22713;SDS011;11524;50.846;4.326;2023-01-15T12:29:45;3.05;;;0.95;;
22713;SDS011;11524;50.846;4.326;2023-01-15T12:32:17;2.08;;;1.00;;
22713;SDS011;11524;50.846;4.326;2023-01-15T12:37:35;2.13;;;0.93;;
22713;SDS011;11524;50.846;4.326;2023-01-15T12:42:38;1.23;;;0.57;;
22713;SDS011;11524;50.846;4.326;2023-01-15T12:45:26;3.53;;;0.80;;
22713;SDS011;11524;50.846;4.326;2023-01-15T12:55:45;1.48;;;1.00;;
22713;SDS011;11524;50.846;4.326;2023-01-15T13:00:51;3.83;;;1.02;;
22713;SDS011;11524;50.846;4.326;2023-01-15T13:03:29;2.78;;;0.70;;
22713;SDS011;11524;50.846;4.326;2023-01-15T13:06:16;3.35;;;0.88;;
22713;SDS011;11524;50.846;4.326;2023-01-15T13:11:20;2.80;;;0.88;;
22713;SDS011;11524;50.846;4.326;2023-01-15T13:13:46;2.72;;;0.82;;
22713;SDS011;11524;50.846;4.326;2023-01-15T13:16:27;2.67;;;0.82;;
22713;SDS011;11524;50.846;4.326;2023-01-15T13:21:58;3.42;;;0.80;;
22713;SDS011;11524;50.846;4.326;2023-01-15T13:29:57;1.45;;;0.80;;
22713;SDS011;11524;50.846;4.326;2023-01-15T13:32:32;2.38;;;0.82;;
22713;SDS011;11524;50.846;4.326;2023-01-15T13:37:56;1.35;;;0.60;;
22713;SDS011;11524;50.846;4.326;2023-01-15T13:40:26;2.40;;;0.85;;
22713;SDS011;11524;50.846;4.326;2023-01-15T13:42:53;1.65;;;0.85;;
22713;SDS011;11524;50.846;4.326;2023-01-15T13:47:51;1.42;;;0.60;;
22713;SDS011;11524;50.846;4.326;2023-01-15T13:50:24;1.52;;;0.80;;
22713;SDS011;11524;50.846;4.326;2023-01-15T13:55:51;1.92;;;0.80;;
22713;SDS011;11524;50.846;4.326;2023-01-15T14:09:12;1.38;;;0.85;;
22713;SDS011;11524;50.846;4.326;2023-01-15T14:26:00;2.95;;;0.90;;
22713;SDS011;11524;50.846;4.326;2023-01-15T14:34:17;4.22;;;0.98;;
22713;SDS011;11524;50.846;4.326;2023-01-15T14:36:50;4.22;;;0.98;;
22713;SDS011;11524;50.846;4.326;2023-01-15T14:39:25;5.82;;;1.02;;
22713;SDS011;11524;50.846;4.326;2023-01-15T14:41:55;5.13;;;1.00;;
22713;SDS011;11524;50.846;4.326;2023-01-15T14:45:03;3.38;;;0.90;;
22713;SDS011;11524;50.846;4.326;2023-01-15T14:47:34;3.92;;;0.80;;
22713;SDS011;11524;50.846;4.326;2023-01-15T14:50:37;3.72;;;0.80;;
22713;SDS011;11524;50.846;4.326;2023-01-15T15:00:56;4.07;;;0.70;;
22713;SDS011;11524;50.846;4.326;2023-01-15T15:03:35;3.13;;;0.88;;
22713;SDS011;11524;50.846;4.326;2023-01-15T15:06:03;2.88;;;0.90;;
22713;SDS011;11524;50.846;4.326;2023-01-15T15:08:30;2.92;;;0.90;;
22713;SDS011;11524;50.846;4.326;2023-01-15T15:10:58;7.10;;;0.85;;
22713;SDS011;11524;50.846;4.326;2023-01-15T15:13:27;3.55;;;1.10;;
22713;SDS011;11524;50.846;4.326;2023-01-15T15:16:15;3.63;;;0.90;;
22713;SDS011;11524;50.846;4.326;2023-01-15T15:18:50;3.05;;;0.95;;
22713;SDS011;11524;50.846;4.326;2023-01-15T15:21:36;2.17;;;0.90;;
22713;SDS011;11524;50.846;4.326;2023-01-15T15:24:05;3.55;;;1.38;;
22713;SDS011;11524;50.846;4.326;2023-01-15T15:29:14;2.30;;;1.08;;
22713;SDS011;11524;50.846;4.326;2023-01-15T15:34:25;2.28;;;1.20;;
22713;SDS011;11524;50.846;4.326;2023-01-15T15:36:54;2.17;;;0.80;;
22713;SDS011;11524;50.846;4.326;2023-01-15T15:39:24;1.50;;;1.02;;
22713;SDS011;11524;50.846;4.326;2023-01-15T15:42:04;1.88;;;0.60;;
22713;SDS011;11524;50.846;4.326;2023-01-15T15:45:06;1.73;;;0.80;;
22713;SDS011;11524;50.846;4.326;2023-01-15T15:48:10;1.52;;;0.93;;
22713;SDS011;11524;50.846;4.326;2023-01-15T15:50:56;1.40;;;0.80;;
22713;SDS011;11524;50.846;4.326;2023-01-15T15:53:22;2.50;;;0.90;;
22713;SDS011;11524;50.846;4.326;2023-01-15T15:55:48;2.88;;;0.80;;
22713;SDS011;11524;50.846;4.326;2023-01-15T15:58:17;2.80;;;1.05;;
22713;SDS011;11524;50.846;4.326;2023-01-15T16:00:48;1.58;;;0.82;;
22713;SDS011;11524;50.846;4.326;2023-01-15T16:03:28;1.92;;;0.85;;
22713;SDS011;11524;50.846;4.326;2023-01-15T16:08:24;3.60;;;0.80;;
22713;SDS011;11524;50.846;4.326;2023-01-15T16:10:54;2.88;;;0.80;;
22713;SDS011;11524;50.846;4.326;2023-01-15T16:13:25;2.50;;;1.08;;
22713;SDS011;11524;50.846;4.326;2023-01-15T16:15:51;4.78;;;0.85;;
22713;SDS011;11524;50.846;4.326;2023-01-15T16:18:39;2.72;;;0.75;;
22713;SDS011;11524;50.846;4.326;2023-01-15T16:21:14;8.77;;;1.00;;
22713;SDS011;11524;50.846;4.326;2023-01-15T16:24:00;3.88;;;1.00;;
22713;SDS011;11524;50.846;4.326;2023-01-15T16:26:38;4.40;;;1.20;;
22713;SDS011;11524;50.846;4.326;2023-01-15T16:29:20;2.22;;;0.80;;
22713;SDS011;11524;50.846;4.326;2023-01-15T16:31:48;3.58;;;1.05;;
22713;SDS011;11524;50.846;4.326;2023-01-15T16:34:17;2.15;;;0.90;;
22713;SDS011;11524;50.846;4.326;2023-01-15T16:36:45;4.25;;;1.20;;
22713;SDS011;11524;50.846;4.326;2023-01-15T16:39:19;4.25;;;1.20;;
22713;SDS011;11524;50.846;4.326;2023-01-15T16:41:53;2.60;;;1.00;;
22713;SDS011;11524;50.846;4.326;2023-01-15T16:44:48;9.00;;;0.80;;
22713;SDS011;11524;50.846;4.326;2023-01-15T16:47:22;4.30;;;1.10;;
22713;SDS011;11524;50.846;4.326;2023-01-15T16:49:50;2.40;;;1.05;;
22713;SDS011;11524;50.846;4.326;2023-01-15T17:00:36;2.92;;;0.90;;
22713;SDS011;11524;50.846;4.326;2023-01-15T17:03:03;2.40;;;0.88;;
22713;SDS011;11524;50.846;4.326;2023-01-15T17:05:34;4.13;;;1.00;;
22713;SDS011;11524;50.846;4.326;2023-01-15T17:08:00;5.40;;;1.13;;
22713;SDS011;11524;50.846;4.326;2023-01-15T17:10:26;4.95;;;1.23;;
22713;SDS011;11524;50.846;4.326;2023-01-15T17:12:53;6.65;;;1.02;;
22713;SDS011;11524;50.846;4.326;2023-01-15T17:17:51;4.93;;;0.98;;
22713;SDS011;11524;50.846;4.326;2023-01-15T17:20:18;5.47;;;1.00;;
22713;SDS011;11524;50.846;4.326;2023-01-15T17:22:47;5.30;;;1.10;;
22713;SDS011;11524;50.846;4.326;2023-01-15T17:25:26;5.13;;;1.10;;
22713;SDS011;11524;50.846;4.326;2023-01-15T17:27:55;9.73;;;1.50;;
22713;SDS011;11524;50.846;4.326;2023-01-15T17:30:23;9.27;;;2.40;;
22713;SDS011;11524;50.846;4.326;2023-01-15T17:32:55;19.48;;;5.43;;
22713;SDS011;11524;50.846;4.326;2023-01-15T17:37:48;20.52;;;8.50;;
22713;SDS011;11524;50.846;4.326;2023-01-15T17:40:14;21.90;;;8.68;;
22713;SDS011;11524;50.846;4.326;2023-01-15T17:42:40;25.15;;;7.95;;
22713;SDS011;11524;50.846;4.326;2023-01-15T17:45:06;17.38;;;6.82;;
22713;SDS011;11524;50.846;4.326;2023-01-15T17:50:05;21.42;;;7.72;;